Time;durP1;ratioP1;P1;durP2;ratioP2;P2;SDS_P1;SDS_P2;PMS_P1;PMS_P2;Temp;Humidity;BMP_temperature;BMP_pressure;BME280_temperature;BME280_humidity;BME280_pressure;Samples;Min_cycle;Max_cycle;Signal;HPM_P1;HPM_P2
2022/05/30 00:01:13;;;;;;;;;;;;;;;;;;5095567;28;19934;-88
2022/05/30 00:03:39;;;;;;;;;;;;;;;;;;5095394;28;20020;-88
2022/05/30 00:06:09;;;;;;;;;;;;;;;;;;5077256;28;19920;-89
2022/05/30 00:08:34;;;;;;;;;;;;;;;;;;5095336;28;20688;-88
2022/05/30 00:11:03;;;;;;;;;;;;;;;;;;5077141;28;19920;-89
2022/05/30 00:13:29;;;;;;;;;;;;;;;;;;5095235;28;20007;-89
2022/05/30 00:15:55;;;;;;;;;;;;;;;;;;5093731;28;20023;-87
2022/05/30 00:18:20;;;;;;;;;;;;;;;;;;5093602;28;19946;-88
2022/05/30 00:20:46;;;;;;;;;;;;;;;;;;5095171;28;20427;-88
2022/05/30 00:23:12;;;;;;;;;;;;;;;;;;5095151;28;20283;-89
2022/05/30 00:25:46;;;;;;;;;;;;;;;;;;5094954;28;19970;-87
2022/05/30 00:28:11;;;;;;;;;;;;;;;;;;5094842;28;19931;-87
2022/05/30 00:30:37;;;;;;;;;;;;;;;;;;5093639;28;20291;-87
2022/05/30 00:33:02;;;;;;;;;;;;;;;;;;5095011;28;19916;-88
2022/05/30 00:35:28;;;;;;;;;;;;;;;;;;5094934;28;19919;-89
2022/05/30 00:37:53;;;;;;;;;;;;;;;;;;5094276;28;19949;-89
2022/05/30 00:40:19;;;;;;;;;;;;;;;;;;5093535;28;19983;-87
2022/05/30 00:42:44;;;;;;;;;;;;;;;;;;5093463;28;19912;-88
2022/05/30 00:45:10;;;;;;;;;;;;;;;;;;5094725;28;19916;-88
2022/05/30 00:47:36;;;;;;;;;;;;;;;;;;5094403;28;20364;-88
2022/05/30 00:50:02;;;;;;;;;;;;;;;;;;5093188;28;19920;-88
2022/05/30 00:52:27;;;;;;;;;;;;;;;;;;5076474;28;20696;-90
2022/05/30 00:54:54;;;;;;;;;;;;;;;;;;5094599;28;20379;-90
2022/05/30 00:57:21;;;;;;;;;;;;;;;;;;5076832;28;20360;-91
2022/05/30 00:59:50;;;;;;;;;;;;;;;;;;5075871;28;20383;-88
2022/05/30 01:02:17;;;;;;;;;;;;;;;;;;5076196;28;20011;-89
2022/05/30 01:07:32;;;;;;;;;;;;;;;;;;5094498;28;20017;-89
2022/05/30 01:09:59;;;;;;;;;;;;;;;;;;5076243;28;20011;-90
2022/05/30 01:12:38;;;;;;;;;;;;;;;;;;5094137;28;19940;-88
2022/05/30 01:15:05;;;;;;;;;;;;;;;;;;5076004;28;19941;-88
2022/05/30 01:17:32;;;;;;;;;;;;;;;;;;5093851;28;19955;-89
2022/05/30 01:20:02;;;;;;;;;;;;;;;;;;5093630;28;19935;-88
2022/05/30 01:22:43;;;;;;;;;;;;;;;;;;5094010;28;20426;-89
2022/05/30 01:25:18;;;;;;;;;;;;;;;;;;5093933;28;19916;-88
2022/05/30 01:27:43;;;;;;;;;;;;;;;;;;5075338;28;19916;-88
2022/05/30 01:30:11;;;;;;;;;;;;;;;;;;5075587;28;19939;-88
2022/05/30 01:32:37;;;;;;;;;;;;;;;;;;5075660;28;19962;-88
2022/05/30 01:35:02;;;;;;;;;;;;;;;;;;5093756;28;20330;-88
2022/05/30 01:37:28;;;;;;;;;;;;;;;;;;5093636;28;19916;-88
2022/05/30 01:39:53;;;;;;;;;;;;;;;;;;5074905;28;20291;-88
2022/05/30 01:42:19;;;;;;;;;;;;;;;;;;5093725;28;19942;-88
2022/05/30 01:44:44;;;;;;;;;;;;;;;;;;5093614;28;19923;-88
2022/05/30 01:47:10;;;;;;;;;;;;;;;;;;5093318;28;19966;-87
2022/05/30 01:49:36;;;;;;;;;;;;;;;;;;5093419;28;19969;-88
2022/05/30 01:52:02;;;;;;;;;;;;;;;;;;5075157;28;19985;-88
2022/05/30 01:54:27;;;;;;;;;;;;;;;;;;5093259;28;20303;-87
2022/05/30 01:56:52;;;;;;;;;;;;;;;;;;5093258;28;19916;-88
2022/05/30 01:59:18;;;;;;;;;;;;;;;;;;5093106;28;19955;-87
2022/05/30 02:01:45;;;;;;;;;;;;;;;;;;5093209;28;19923;-91
2022/05/30 02:04:14;;;;;;;;;;;;;;;;;;5093342;28;19916;-88
2022/05/30 02:06:39;;;;;;;;;;;;;;;;;;5093244;28;19916;-88
2022/05/30 02:09:05;;;;;;;;;;;;;;;;;;5093084;28;20451;-88
2022/05/30 02:11:30;;;;;;;;;;;;;;;;;;5092827;28;19927;-89
2022/05/30 02:13:56;;;;;;;;;;;;;;;;;;5093121;28;20379;-89
2022/05/30 02:19:05;;;;;;;;;;;;;;;;;;5092647;28;19923;-87
2022/05/30 02:21:32;;;;;;;;;;;;;;;;;;5092978;28;19912;-89
2022/05/30 02:23:57;;;;;;;;;;;;;;;;;;5093021;28;19975;-89
2022/05/30 02:26:23;;;;;;;;;;;;;;;;;;5093101;28;19955;-88
2022/05/30 02:28:49;;;;;;;;;;;;;;;;;;5074999;28;20031;-88
2022/05/30 02:31:14;;;;;;;;;;;;;;;;;;5092964;28;19927;-89
2022/05/30 02:36:39;;;;;;;;;;;;;;;;;;5092960;28;19923;-89
2022/05/30 02:39:04;;;;;;;;;;;;;;;;;;5092600;28;19923;-88
2022/05/30 02:41:30;;;;;;;;;;;;;;;;;;5091568;28;19920;-90
2022/05/30 02:43:55;;;;;;;;;;;;;;;;;;5074649;28;20019;-89
2022/05/30 02:46:20;;;;;;;;;;;;;;;;;;5091547;28;19955;-88
2022/05/30 02:48:46;;;;;;;;;;;;;;;;;;5092597;28;19922;-87
2022/05/30 02:51:11;;;;;;;;;;;;;;;;;;5092697;28;20003;-89
2022/05/30 02:53:37;;;;;;;;;;;;;;;;;;5093169;28;19920;-88
2022/05/30 02:56:03;;;;;;;;;;;;;;;;;;5092546;28;19931;-90
2022/05/30 02:58:28;;;;;;;;;;;;;;;;;;5092312;28;19916;-88
2022/05/30 03:00:54;;;;;;;;;;;;;;;;;;5092770;28;20018;-87
2022/05/30 03:03:19;;;;;;;;;;;;;;;;;;5093039;28;19959;-88
2022/05/30 03:05:45;;;;;;;;;;;;;;;;;;5074377;28;19920;-88
2022/05/30 03:08:10;;;;;;;;;;;;;;;;;;5092422;28;19956;-88
2022/05/30 03:10:36;;;;;;;;;;;;;;;;;;5092525;28;19916;-89
2022/05/30 03:13:01;;;;;;;;;;;;;;;;;;5092570;28;19931;-88
2022/05/30 03:15:27;;;;;;;;;;;;;;;;;;5092611;28;19920;-89
2022/05/30 03:17:52;;;;;;;;;;;;;;;;;;5092308;28;20011;-87
2022/05/30 03:20:18;;;;;;;;;;;;;;;;;;5074663;28;19921;-91
2022/05/30 03:22:44;;;;;;;;;;;;;;;;;;5054236;28;19966;-91
2022/05/30 03:25:10;;;;;;;;;;;;;;;;;;5074981;28;20024;-89
2022/05/30 03:27:35;;;;;;;;;;;;;;;;;;5075569;28;19917;-89
2022/05/30 03:30:00;;;;;;;;;;;;;;;;;;5057850;28;19989;-89
2022/05/30 03:32:26;;;;;;;;;;;;;;;;;;5075851;28;19920;-89
2022/05/30 03:34:51;;;;;;;;;;;;;;;;;;5075744;28;19959;-89
2022/05/30 03:37:17;;;;;;;;;;;;;;;;;;5074333;28;20008;-91
2022/05/30 03:39:42;;;;;;;;;;;;;;;;;;5075203;28;19966;-89
2022/05/30 03:42:13;;;;;;;;;;;;;;;;;;5074394;28;20427;-90
2022/05/30 03:44:39;;;;;;;;;;;;;;;;;;5075709;28;20015;-90
2022/05/30 03:47:04;;;;;;;;;;;;;;;;;;5075520;28;19967;-89
2022/05/30 03:49:30;;;;;;;;;;;;;;;;;;5075267;28;19924;-89
2022/05/30 03:51:55;;;;;;;;;;;;;;;;;;5056847;28;19971;-89
2022/05/30 03:54:20;;;;;;;;;;;;;;;;;;5075300;28;20377;-90
2022/05/30 03:56:46;;;;;;;;;;;;;;;;;;5095102;28;19916;-89
2022/05/30 03:59:12;;;;;;;;;;;;;;;;;;5077195;28;19920;-89
2022/05/30 04:01:37;;;;;;;;;;;;;;;;;;5095481;28;19916;-90
2022/05/30 04:04:03;;;;;;;;;;;;;;;;;;5094216;28;19916;-89
2022/05/30 04:06:28;;;;;;;;;;;;;;;;;;5095357;28;20704;-91
2022/05/30 04:08:53;;;;;;;;;;;;;;;;;;5095131;28;19969;-89
2022/05/30 04:11:19;;;;;;;;;;;;;;;;;;5095257;28;19916;-89
2022/05/30 04:13:44;;;;;;;;;;;;;;;;;;5095185;28;19920;-90
2022/05/30 04:16:11;;;;;;;;;;;;;;;;;;5095366;28;20280;-88
2022/05/30 04:18:36;;;;;;;;;;;;;;;;;;5109002;28;19920;-92
2022/05/30 04:21:02;;;;;;;;;;;;;;;;;;5083629;28;19924;-90
2022/05/30 04:23:28;;;;;;;;;;;;;;;;;;5081450;28;19923;-90
2022/05/30 04:25:54;;;;;;;;;;;;;;;;;;5101955;28;19920;-91
2022/05/30 04:28:20;;;;;;;;;;;;;;;;;;5085733;28;19924;-91
2022/05/30 04:30:45;;;;;;;;;;;;;;;;;;5073394;28;19921;-90
2022/05/30 04:33:11;;;;;;;;;;;;;;;;;;5082146;28;19934;-92
2022/05/30 04:35:36;;;;;;;;;;;;;;;;;;5103408;28;19916;-91
2022/05/30 04:38:01;;;;;;;;;;;;;;;;;;5094541;28;19916;-92
2022/05/30 04:40:27;;;;;;;;;;;;;;;;;;5093944;28;19913;-91
2022/05/30 04:42:52;;;;;;;;;;;;;;;;;;5094744;28;19927;-90
2022/05/30 04:45:18;;;;;;;;;;;;;;;;;;5094769;28;19939;-90
2022/05/30 04:47:43;;;;;;;;;;;;;;;;;;5094351;28;19923;-91
2022/05/30 04:50:14;;;;;;;;;;;;;;;;;;5096775;28;20307;-93
2022/05/30 04:52:40;;;;;;;;;;;;;;;;;;5094653;28;19970;-90
2022/05/30 04:55:05;;;;;;;;;;;;;;;;;;5093034;28;19963;-90
2022/05/30 04:57:31;;;;;;;;;;;;;;;;;;5111993;28;20384;-90
2022/05/30 04:59:58;;;;;;;;;;;;;;;;;;5096216;28;19920;-92
2022/05/30 05:02:23;;;;;;;;;;;;;;;;;;5085167;28;19943;-90
2022/05/30 05:04:48;;;;;;;;;;;;;;;;;;5085158;28;20372;-90
2022/05/30 05:07:14;;;;;;;;;;;;;;;;;;5086096;28;19912;-88
2022/05/30 05:09:39;;;;;;;;;;;;;;;;;;5074200;28;19924;-90
2022/05/30 05:12:05;;;;;;;;;;;;;;;;;;5073986;28;20335;-87
2022/05/30 05:14:31;;;;;;;;;;;;;;;;;;5079461;28;20033;-89
2022/05/30 05:16:56;;;;;;;;;;;;;;;;;;5094168;28;19917;-90
2022/05/30 05:19:22;;;;;;;;;;;;;;;;;;5093098;28;19928;-89
2022/05/30 05:21:47;;;;;;;;;;;;;;;;;;5093012;28;20351;-88
2022/05/30 05:24:15;;;;;;;;;;;;;;;;;;5092270;28;19962;-89
2022/05/30 05:26:48;;;;;;;;;;;;;;;;;;5075455;28;19967;-91
2022/05/30 05:29:15;;;;;;;;;;;;;;;;;;5071319;28;19927;-89
2022/05/30 05:31:40;;;;;;;;;;;;;;;;;;5084602;28;19920;-88
2022/05/30 05:34:07;;;;;;;;;;;;;;;;;;5075419;28;19920;-91
2022/05/30 05:36:34;;;;;;;;;;;;;;;;;;5093743;28;19919;-89
2022/05/30 05:39:00;;;;;;;;;;;;;;;;;;5093524;28;19916;-90
2022/05/30 05:41:25;;;;;;;;;;;;;;;;;;5093315;28;20378;-90
2022/05/30 05:43:54;;;;;;;;;;;;;;;;;;5093465;28;19924;-90
2022/05/30 05:46:23;;;;;;;;;;;;;;;;;;5072212;28;20199;-91
2022/05/30 05:48:50;;;;;;;;;;;;;;;;;;5073046;28;19916;-89
2022/05/30 05:51:15;;;;;;;;;;;;;;;;;;5055267;28;19920;-90
2022/05/30 05:53:41;;;;;;;;;;;;;;;;;;5074000;28;19920;-90
2022/05/30 05:56:14;;;;;;;;;;;;;;;;;;5073112;28;19924;-91
2022/05/30 05:58:40;;;;;;;;;;;;;;;;;;5056497;28;20022;-89
2022/05/30 06:01:09;;;;;;;;;;;;;;;;;;5072784;28;19959;-91
2022/05/30 06:03:34;;;;;;;;;;;;;;;;;;5073079;28;20256;-89
2022/05/30 06:05:59;;;;;;;;;;;;;;;;;;5075891;28;19981;-90
2022/05/30 06:08:25;;;;;;;;;;;;;;;;;;5092856;28;19920;-90
2022/05/30 06:11:05;;;;;;;;;;;;;;;;;;5093157;28;19916;-90
2022/05/30 06:13:40;;;;;;;;;;;;;;;;;;5093241;28;19916;-89
2022/05/30 06:16:07;;;;;;;;;;;;;;;;;;5093177;28;20007;-89
2022/05/30 06:18:32;;;;;;;;;;;;;;;;;;5074845;28;19955;-90
2022/05/30 06:20:58;;;;;;;;;;;;;;;;;;5091206;28;20403;-89
2022/05/30 06:23:24;;;;;;;;;;;;;;;;;;5087913;28;20019;-90
2022/05/30 06:25:49;;;;;;;;;;;;;;;;;;5072686;28;19963;-89
2022/05/30 06:28:26;;;;;;;;;;;;;;;;;;5078163;28;19921;-91
2022/05/30 06:30:51;;;;;;;;;;;;;;;;;;5074848;28;19970;-90
2022/05/30 06:33:17;;;;;;;;;;;;;;;;;;5093136;28;20375;-89
2022/05/30 06:35:45;;;;;;;;;;;;;;;;;;5092662;28;20448;-88
2022/05/30 06:38:11;;;;;;;;;;;;;;;;;;5091949;28;19966;-89
2022/05/30 06:40:36;;;;;;;;;;;;;;;;;;5092513;28;19959;-90
2022/05/30 06:43:02;;;;;;;;;;;;;;;;;;5092873;28;20322;-89
2022/05/30 06:45:28;;;;;;;;;;;;;;;;;;5092965;28;19924;-88
2022/05/30 06:47:53;;;;;;;;;;;;;;;;;;5092693;28;19916;-87
2022/05/30 06:50:18;;;;;;;;;;;;;;;;;;5092473;28;19916;-89
2022/05/30 06:52:44;;;;;;;;;;;;;;;;;;5092867;28;19916;-89
2022/05/30 06:55:10;;;;;;;;;;;;;;;;;;5087561;28;19928;-88
2022/05/30 07:00:20;;;;;;;;;;;;;;;;;;5095658;28;20049;-87
2022/05/30 07:02:46;;;;;;;;;;;;;;;;;;5096753;28;19920;-91
2022/05/30 07:05:11;;;;;;;;;;;;;;;;;;5096683;28;20069;-88
2022/05/30 07:07:40;;;;;;;;;;;;;;;;;;5096587;28;20383;-90
2022/05/30 07:10:07;;;;;;;;;;;;;;;;;;5096286;28;19916;-88
2022/05/30 07:12:32;;;;;;;;;;;;;;;;;;5096764;28;20252;-90
2022/05/30 07:14:57;;;;;;;;;;;;;;;;;;5096520;28;19973;-88
2022/05/30 07:17:25;;;;;;;;;;;;;;;;;;5096271;28;19981;-89
2022/05/30 07:19:50;;;;;;;;;;;;;;;;;;5095792;28;20404;-88
2022/05/30 07:22:16;;;;;;;;;;;;;;;;;;5096342;28;19966;-89
2022/05/30 07:24:41;;;;;;;;;;;;;;;;;;5096305;28;20027;-89
2022/05/30 07:27:07;;;;;;;;;;;;;;;;;;5096273;28;20310;-91
2022/05/30 07:29:32;;;;;;;;;;;;;;;;;;5095924;28;19969;-88
2022/05/30 07:32:01;;;;;;;;;;;;;;;;;;5077825;28;19920;-87
2022/05/30 07:34:27;;;;;;;;;;;;;;;;;;5096180;28;19923;-89
2022/05/30 07:36:52;;;;;;;;;;;;;;;;;;5096049;28;19916;-89
2022/05/30 07:39:18;;;;;;;;;;;;;;;;;;5111602;28;20368;-89
2022/05/30 07:41:44;;;;;;;;;;;;;;;;;;5095482;28;20311;-90
2022/05/30 07:44:09;;;;;;;;;;;;;;;;;;5096001;28;19916;-89
2022/05/30 07:46:35;;;;;;;;;;;;;;;;;;5077747;28;19920;-89
2022/05/30 07:49:00;;;;;;;;;;;;;;;;;;5095660;28;20326;-87
2022/05/30 07:51:26;;;;;;;;;;;;;;;;;;5095752;28;19920;-89
2022/05/30 07:53:57;;;;;;;;;;;;;;;;;;5095492;28;19950;-88
2022/05/30 07:56:23;;;;;;;;;;;;;;;;;;5095759;28;20363;-88
2022/05/30 07:58:49;;;;;;;;;;;;;;;;;;5095591;28;20005;-89
2022/05/30 08:01:15;;;;;;;;;;;;;;;;;;5094976;28;19917;-88
2022/05/30 08:03:41;;;;;;;;;;;;;;;;;;5095487;28;19924;-88
2022/05/30 08:06:12;;;;;;;;;;;;;;;;;;5077344;28;19920;-89
2022/05/30 08:08:42;;;;;;;;;;;;;;;;;;5077354;28;19939;-90
2022/05/30 08:11:07;;;;;;;;;;;;;;;;;;5094834;28;19924;-88
2022/05/30 08:13:33;;;;;;;;;;;;;;;;;;5095270;28;20390;-90
2022/05/30 08:15:59;;;;;;;;;;;;;;;;;;5095282;28;19917;-88
2022/05/30 08:18:24;;;;;;;;;;;;;;;;;;5095145;28;19916;-88
2022/05/30 08:20:50;;;;;;;;;;;;;;;;;;5094953;28;20269;-90
2022/05/30 08:23:17;;;;;;;;;;;;;;;;;;5095225;28;20425;-88
2022/05/30 08:25:43;;;;;;;;;;;;;;;;;;5076868;28;19986;-89
2022/05/30 08:28:09;;;;;;;;;;;;;;;;;;5095140;28;20378;-88
2022/05/30 08:30:34;;;;;;;;;;;;;;;;;;5094790;28;19916;-87
2022/05/30 08:33:00;;;;;;;;;;;;;;;;;;5095033;28;19916;-88
2022/05/30 08:35:25;;;;;;;;;;;;;;;;;;5076771;28;19912;-89
2022/05/30 08:37:55;;;;;;;;;;;;;;;;;;5076531;28;20056;-88
2022/05/30 08:43:08;;;;;;;;;;;;;;;;;;5094847;28;19974;-89
2022/05/30 08:45:33;;;;;;;;;;;;;;;;;;5094713;28;20287;-90
2022/05/30 08:47:59;;;;;;;;;;;;;;;;;;5076467;28;19916;-89
2022/05/30 08:50:36;;;;;;;;;;;;;;;;;;5094419;28;19989;-88
2022/05/30 08:53:14;;;;;;;;;;;;;;;;;;5076499;28;19965;-88
2022/05/30 08:56:02;;;;;;;;;;;;;;;;;;5094386;28;19942;-90
2022/05/30 08:58:33;;;;;;;;;;;;;;;;;;5076265;28;20400;-88
2022/05/30 09:01:06;;;;;;;;;;;;;;;;;;5094103;28;20054;-89
2022/05/30 09:03:37;;;;;;;;;;;;;;;;;;5094384;28;20383;-89
2022/05/30 09:06:20;;;;;;;;;;;;;;;;;;5076145;28;20013;-89
2022/05/30 09:08:49;;;;;;;;;;;;;;;;;;5094361;28;20477;-89
2022/05/30 09:11:24;;;;;;;;;;;;;;;;;;5094002;28;19920;-89
2022/05/30 09:13:51;;;;;;;;;;;;;;;;;;5094115;28;19922;-88
2022/05/30 09:16:39;;;;;;;;;;;;;;;;;;5076051;28;19919;-88
2022/05/30 09:19:07;;;;;;;;;;;;;;;;;;5083329;28;20010;-90
2022/05/30 09:21:34;;;;;;;;;;;;;;;;;;5092831;28;20073;-89
2022/05/30 09:24:00;;;;;;;;;;;;;;;;;;5075779;28;19920;-89
2022/05/30 09:26:28;;;;;;;;;;;;;;;;;;5094007;28;20352;-88
2022/05/30 09:28:54;;;;;;;;;;;;;;;;;;5093896;28;20364;-88
2022/05/30 09:31:35;;;;;;;;;;;;;;;;;;5075443;28;19954;-89
2022/05/30 09:34:21;;;;;;;;;;;;;;;;;;5093772;28;19926;-88
2022/05/30 09:36:49;;;;;;;;;;;;;;;;;;5093709;28;19923;-88
2022/05/30 09:39:15;;;;;;;;;;;;;;;;;;5060574;28;19947;-94
2022/05/30 09:41:41;;;;;;;;;;;;;;;;;;5080476;28;20028;-90
2022/05/30 09:44:15;;;;;;;;;;;;;;;;;;5081257;28;20383;-89
2022/05/30 09:46:43;;;;;;;;;;;;;;;;;;5085866;28;20016;-91
2022/05/30 09:49:10;;;;;;;;;;;;;;;;;;5088008;28;19962;-88
2022/05/30 09:51:38;;;;;;;;;;;;;;;;;;5093087;28;19917;-89
2022/05/30 09:54:04;;;;;;;;;;;;;;;;;;5093220;28;20368;-92
2022/05/30 09:56:33;;;;;;;;;;;;;;;;;;5093540;28;19927;-88
2022/05/30 09:59:01;;;;;;;;;;;;;;;;;;5093276;28;19916;-93
2022/05/30 10:01:27;;;;;;;;;;;;;;;;;;5093040;28;19920;-89
2022/05/30 10:04:12;;;;;;;;;;;;;;;;;;5108593;28;19943;-92
2022/05/30 10:06:37;;;;;;;;;;;;;;;;;;5093438;28;19916;-92
2022/05/30 10:09:08;;;;;;;;;;;;;;;;;;5093244;28;19916;-90
2022/05/30 10:11:35;;;;;;;;;;;;;;;;;;5092950;28;19916;-91
2022/05/30 10:14:16;;;;;;;;;;;;;;;;;;5093170;28;19981;-92
2022/05/30 10:16:42;;;;;;;;;;;;;;;;;;5089427;28;20281;-91
2022/05/30 10:19:10;;;;;;;;;;;;;;;;;;5075476;28;20382;-90
2022/05/30 10:21:39;;;;;;;;;;;;;;;;;;5080976;28;20295;-90
2022/05/30 10:29:51;;;;;;;;;;;;;;;;;;5092680;28;19923;-89
2022/05/30 10:32:30;;;;;;;;;;;;;;;;;;5096477;28;19916;-91
2022/05/30 10:35:14;;;;;;;;;;;;;;;;;;5086113;28;19920;-91
2022/05/30 10:37:44;;;;;;;;;;;;;;;;;;5079701;28;19916;-91
2022/05/30 10:40:32;;;;;;;;;;;;;;;;;;5078043;28;19916;-88
2022/05/30 10:42:57;;;;;;;;;;;;;;;;;;5078987;28;20011;-89
2022/05/30 10:45:30;;;;;;;;;;;;;;;;;;5079360;28;19963;-89
2022/05/30 10:47:56;;;;;;;;;;;;;;;;;;5079085;28;19921;-90
2022/05/30 10:50:52;;;;;;;;;;;;;;;;;;5079982;28;19921;-90
2022/05/30 10:53:30;;;;;;;;;;;;;;;;;;5078371;28;20015;-90
2022/05/30 10:55:58;;;;;;;;;;;;;;;;;;5078948;28;19973;-90
2022/05/30 10:58:27;;;;;;;;;;;;;;;;;;5074551;28;19955;-91
2022/05/30 11:00:57;;;;;;;;;;;;;;;;;;5086256;28;19920;-89
2022/05/30 11:03:29;;;;;;;;;;;;;;;;;;5085490;28;19947;-90
2022/05/30 11:06:05;;;;;;;;;;;;;;;;;;5084339;28;20407;-90
2022/05/30 11:08:46;;;;;;;;;;;;;;;;;;5083203;28;19931;-90
2022/05/30 11:11:15;;;;;;;;;;;;;;;;;;5086616;28;19920;-90
2022/05/30 11:13:59;;;;;;;;;;;;;;;;;;5095440;28;19993;-90
2022/05/30 11:16:33;;;;;;;;;;;;;;;;;;5098888;28;19916;-90
2022/05/30 11:19:01;;;;;;;;;;;;;;;;;;5099072;28;19973;-89
2022/05/30 11:21:32;;;;;;;;;;;;;;;;;;5098743;28;19999;-90
2022/05/30 11:24:01;;;;;;;;;;;;;;;;;;5099181;28;19916;-90
2022/05/30 11:26:36;;;;;;;;;;;;;;;;;;5081007;28;19977;-89
2022/05/30 11:29:21;;;;;;;;;;;;;;;;;;5099232;28;19924;-89
2022/05/30 11:31:50;;;;;;;;;;;;;;;;;;5098746;28;20294;-90
2022/05/30 11:34:25;;;;;;;;;;;;;;;;;;5088674;28;19942;-91
2022/05/30 11:37:00;;;;;;;;;;;;;;;;;;5091468;28;19924;-88
2022/05/30 11:39:26;;;;;;;;;;;;;;;;;;5097865;28;19916;-92
2022/05/30 11:42:10;;;;;;;;;;;;;;;;;;5098559;28;19916;-88
2022/05/30 11:44:43;;;;;;;;;;;;;;;;;;5097503;28;19978;-90
2022/05/30 11:47:12;;;;;;;;;;;;;;;;;;5095204;28;20346;-90
2022/05/30 11:49:39;;;;;;;;;;;;;;;;;;5096146;28;20011;-90
2022/05/30 11:52:13;;;;;;;;;;;;;;;;;;5094517;28;19923;-90
2022/05/30 11:54:45;;;;;;;;;;;;;;;;;;5082985;28;20023;-93
2022/05/30 11:57:23;;;;;;;;;;;;;;;;;;5102071;28;19921;-96
2022/05/30 11:59:57;;;;;;;;;;;;;;;;;;5091383;28;19935;-93
2022/05/30 12:02:26;;;;;;;;;;;;;;;;;;5075836;28;20427;-92
2022/05/30 12:05:02;;;;;;;;;;;;;;;;;;5094318;28;19920;-93
2022/05/30 12:07:35;;;;;;;;;;;;;;;;;;5095021;28;20007;-90
2022/05/30 12:10:03;;;;;;;;;;;;;;;;;;5095277;28;20306;-90
2022/05/30 12:12:56;;;;;;;;;;;;;;;;;;5094008;28;19920;-92
2022/05/30 12:15:22;;;;;;;;;;;;;;;;;;5086658;28;19977;-91
2022/05/30 12:26:02;;;;;;;;;;;;;;;;;;5107509;28;19934;-91
2022/05/30 12:28:28;;;;;;;;;;;;;;;;;;5106652;28;19955;-91
2022/05/30 12:31:01;;;;;;;;;;;;;;;;;;5093164;28;20010;-90
2022/05/30 12:33:29;;;;;;;;;;;;;;;;;;5075253;28;20002;-91
2022/05/30 12:36:10;;;;;;;;;;;;;;;;;;5093273;28;19916;-91
2022/05/30 12:38:54;;;;;;;;;;;;;;;;;;5093363;28;19927;-92
2022/05/30 12:41:22;;;;;;;;;;;;;;;;;;5094586;28;20046;-92
2022/05/30 12:43:49;;;;;;;;;;;;;;;;;;5110014;28;19917;-93
2022/05/30 12:46:19;;;;;;;;;;;;;;;;;;5076575;28;19923;-92
2022/05/30 12:48:44;;;;;;;;;;;;;;;;;;5094277;28;19920;-91
2022/05/30 12:51:12;;;;;;;;;;;;;;;;;;5094050;28;19943;-93
2022/05/30 12:53:59;;;;;;;;;;;;;;;;;;5076222;28;19999;-92
2022/05/30 12:56:39;;;;;;;;;;;;;;;;;;5087422;28;19920;-92
2022/05/30 12:59:11;;;;;;;;;;;;;;;;;;5062577;28;19987;-89
2022/05/30 13:01:42;;;;;;;;;;;;;;;;;;5055600;28;20288;-91
2022/05/30 13:04:26;;;;;;;;;;;;;;;;;;5074097;28;19925;-89
2022/05/30 13:06:57;;;;;;;;;;;;;;;;;;5056060;28;19923;-89
2022/05/30 13:09:30;;;;;;;;;;;;;;;;;;5073825;28;19920;-90
2022/05/30 13:12:02;;;;;;;;;;;;;;;;;;5054947;28;20014;-91
2022/05/30 13:14:34;;;;;;;;;;;;;;;;;;5065642;28;20327;-92
2022/05/30 13:17:12;;;;;;;;;;;;;;;;;;5072040;28;19920;-93
2022/05/30 13:19:54;;;;;;;;;;;;;;;;;;5066135;28;20372;-91
2022/05/30 13:22:25;;;;;;;;;;;;;;;;;;5088082;28;19927;-92
2022/05/30 13:24:52;;;;;;;;;;;;;;;;;;5064722;28;19928;-95
2022/05/30 13:27:17;;;;;;;;;;;;;;;;;;5072358;28;19970;-92
2022/05/30 13:29:43;;;;;;;;;;;;;;;;;;5073460;28;19917;-92
2022/05/30 13:32:10;;;;;;;;;;;;;;;;;;5052568;28;20697;-92
2022/05/30 13:34:36;;;;;;;;;;;;;;;;;;5071316;28;19924;-91
2022/05/30 13:37:03;;;;;;;;;;;;;;;;;;5089458;28;19920;-92
2022/05/30 13:39:28;;;;;;;;;;;;;;;;;;5073503;28;20406;-92
2022/05/30 13:41:54;;;;;;;;;;;;;;;;;;5072846;28;19920;-92
2022/05/30 13:44:21;;;;;;;;;;;;;;;;;;5073400;28;19921;-93
2022/05/30 13:46:51;;;;;;;;;;;;;;;;;;5071969;28;19928;-91
2022/05/30 13:49:35;;;;;;;;;;;;;;;;;;5071986;28;19924;-95
2022/05/30 13:52:02;;;;;;;;;;;;;;;;;;5064023;28;20284;-92
2022/05/30 13:54:28;;;;;;;;;;;;;;;;;;5069598;28;20033;-92
2022/05/30 13:56:54;;;;;;;;;;;;;;;;;;5071001;28;19952;-90
2022/05/30 13:59:29;;;;;;;;;;;;;;;;;;5080146;28;21691;-91
2022/05/30 14:01:56;;;;;;;;;;;;;;;;;;5077616;28;20007;-93
2022/05/30 14:04:25;;;;;;;;;;;;;;;;;;5078990;28;19931;-91
2022/05/30 14:06:51;;;;;;;;;;;;;;;;;;5079743;28;20578;-90
2022/05/30 14:09:18;;;;;;;;;;;;;;;;;;5081670;28;20015;-90
2022/05/30 14:12:03;;;;;;;;;;;;;;;;;;5089484;28;20054;-91
2022/05/30 14:14:33;;;;;;;;;;;;;;;;;;5073008;28;19917;-91
2022/05/30 14:16:58;;;;;;;;;;;;;;;;;;5072090;28;19916;-92
2022/05/30 14:19:29;;;;;;;;;;;;;;;;;;5091960;28;19942;-92
2022/05/30 14:21:56;;;;;;;;;;;;;;;;;;5076855;28;19921;-93
2022/05/30 14:24:25;;;;;;;;;;;;;;;;;;5072891;28;19917;-93
2022/05/30 14:26:52;;;;;;;;;;;;;;;;;;5071594;28;19966;-93
2022/05/30 14:29:43;;;;;;;;;;;;;;;;;;5092855;28;20546;-90
2022/05/30 14:32:18;;;;;;;;;;;;;;;;;;5088145;28;19978;-93
2022/05/30 14:34:54;;;;;;;;;;;;;;;;;;5074066;28;19931;-91
2022/05/30 14:37:24;;;;;;;;;;;;;;;;;;5102517;28;19916;-92
2022/05/30 14:39:51;;;;;;;;;;;;;;;;;;5092313;28;19947;-92
2022/05/30 14:42:19;;;;;;;;;;;;;;;;;;5075576;28;19924;-93
2022/05/30 14:44:50;;;;;;;;;;;;;;;;;;5063442;28;20528;-91
2022/05/30 14:47:28;;;;;;;;;;;;;;;;;;5086329;28;20391;-91
2022/05/30 14:50:05;;;;;;;;;;;;;;;;;;5090147;28;19928;-93
2022/05/30 14:52:34;;;;;;;;;;;;;;;;;;5084048;28;19928;-94
2022/05/30 14:55:03;;;;;;;;;;;;;;;;;;5072731;28;19928;-92
2022/05/30 14:57:30;;;;;;;;;;;;;;;;;;5076717;28;19959;-92
2022/05/30 14:59:55;;;;;;;;;;;;;;;;;;5078031;28;19919;-92
2022/05/30 15:05:07;;;;;;;;;;;;;;;;;;5090811;28;19926;-92
2022/05/30 15:07:33;;;;;;;;;;;;;;;;;;5091642;28;20923;-91
2022/05/30 15:09:59;;;;;;;;;;;;;;;;;;5093036;28;19955;-92
2022/05/30 15:12:25;;;;;;;;;;;;;;;;;;5073750;28;20004;-94
2022/05/30 15:14:51;;;;;;;;;;;;;;;;;;5076562;28;19928;-92
2022/05/30 15:17:16;;;;;;;;;;;;;;;;;;5110556;28;19927;-92
2022/05/30 15:19:42;;;;;;;;;;;;;;;;;;5093884;28;19958;-95
2022/05/30 15:22:13;;;;;;;;;;;;;;;;;;5098072;28;19984;-94
2022/05/30 15:24:40;;;;;;;;;;;;;;;;;;5096480;28;19928;-93
2022/05/30 15:27:06;;;;;;;;;;;;;;;;;;5080684;28;19973;-92
2022/05/30 15:29:32;;;;;;;;;;;;;;;;;;5082567;28;20353;-90
2022/05/30 15:32:02;;;;;;;;;;;;;;;;;;5101407;28;19923;-90
2022/05/30 15:34:28;;;;;;;;;;;;;;;;;;5101779;28;19920;-93
2022/05/30 15:36:54;;;;;;;;;;;;;;;;;;5102006;28;19916;-91
2022/05/30 15:39:19;;;;;;;;;;;;;;;;;;5100374;28;20394;-92
2022/05/30 15:41:51;;;;;;;;;;;;;;;;;;5081106;28;19916;-92
2022/05/30 15:44:18;;;;;;;;;;;;;;;;;;5097509;28;20015;-92
2022/05/30 15:46:46;;;;;;;;;;;;;;;;;;5100210;28;20393;-94
2022/05/30 15:49:12;;;;;;;;;;;;;;;;;;5099995;28;19920;-91
2022/05/30 15:51:38;;;;;;;;;;;;;;;;;;5100437;28;19920;-91
2022/05/30 15:59:35;;;;;;;;;;;;;;;;;;5095757;28;20395;-92
2022/05/30 16:02:00;;;;;;;;;;;;;;;;;;5095726;28;19916;-91
2022/05/30 16:04:26;;;;;;;;;;;;;;;;;;5095364;28;19923;-93
2022/05/30 16:06:52;;;;;;;;;;;;;;;;;;5095528;28;19963;-93
2022/05/30 16:09:19;;;;;;;;;;;;;;;;;;5095582;28;19917;-93
2022/05/30 16:11:46;;;;;;;;;;;;;;;;;;5095099;28;20295;-92
2022/05/30 16:14:12;;;;;;;;;;;;;;;;;;5095512;28;20315;-91
2022/05/30 16:16:38;;;;;;;;;;;;;;;;;;5094492;28;19923;-90
2022/05/30 16:19:04;;;;;;;;;;;;;;;;;;5095810;28;20379;-92
2022/05/30 16:21:30;;;;;;;;;;;;;;;;;;5095584;28;19916;-93
2022/05/30 16:23:58;;;;;;;;;;;;;;;;;;5095185;28;19927;-92
2022/05/30 16:26:28;;;;;;;;;;;;;;;;;;5095534;28;19955;-90
2022/05/30 16:28:53;;;;;;;;;;;;;;;;;;5095670;28;20002;-89
2022/05/30 16:31:19;;;;;;;;;;;;;;;;;;5095073;28;20012;-92
2022/05/30 16:33:44;;;;;;;;;;;;;;;;;;5095500;28;19922;-91
2022/05/30 16:36:10;;;;;;;;;;;;;;;;;;5095331;28;20007;-91
2022/05/30 16:38:36;;;;;;;;;;;;;;;;;;5094512;28;19969;-92
2022/05/30 16:41:01;;;;;;;;;;;;;;;;;;5088603;28;19928;-94
2022/05/30 16:43:27;;;;;;;;;;;;;;;;;;5069558;28;20289;-90
2022/05/30 16:45:53;;;;;;;;;;;;;;;;;;5087462;28;19931;-91
2022/05/30 16:48:24;;;;;;;;;;;;;;;;;;5087723;28;19924;-93
2022/05/30 16:50:52;;;;;;;;;;;;;;;;;;5092977;28;19972;-90
2022/05/30 16:53:18;;;;;;;;;;;;;;;;;;5094539;28;20401;-91
2022/05/30 16:55:43;;;;;;;;;;;;;;;;;;5094415;28;19927;-95
2022/05/30 16:58:08;;;;;;;;;;;;;;;;;;5076499;28;19965;-93
2022/05/30 17:00:35;;;;;;;;;;;;;;;;;;5094417;28;19916;-89
2022/05/30 17:03:00;;;;;;;;;;;;;;;;;;5093943;28;19920;-89
2022/05/30 17:05:27;;;;;;;;;;;;;;;;;;5093768;28;19929;-91
2022/05/30 17:07:52;;;;;;;;;;;;;;;;;;5094395;28;19924;-91
2022/05/30 17:10:18;;;;;;;;;;;;;;;;;;5093133;28;19948;-93
2022/05/30 17:12:43;;;;;;;;;;;;;;;;;;5094092;28;19920;-91
2022/05/30 17:15:09;;;;;;;;;;;;;;;;;;5094341;28;19980;-90
2022/05/30 17:17:34;;;;;;;;;;;;;;;;;;5094390;28;19965;-91
2022/05/30 17:20:00;;;;;;;;;;;;;;;;;;5087214;28;19920;-91
2022/05/30 17:22:25;;;;;;;;;;;;;;;;;;5094043;28;19916;-92
2022/05/30 17:24:51;;;;;;;;;;;;;;;;;;5094114;28;19961;-94
2022/05/30 17:30:03;;;;;;;;;;;;;;;;;;5074158;28;20004;-94
2022/05/30 17:32:28;;;;;;;;;;;;;;;;;;5072081;28;19916;-91